KMDD/MDD METAR and TAF weather

Enter ICAO airport designator
Station Type Date Time Source
KMDD METAR 2022/01/29 00:35 UTC NOAA

KMDD 290035Z AUTO 31003KT 10SM CLR 09/M10 A3046 RMK AO2 T00881097


Station Type Date Time Source
KMDD Decoded METAR 2022/01/29 00:35 UTC NOAA

Midland, Midland Airpark, TX, United States (KMDD) 32-02-11N 102-06-03W
Jan 28, 2022 - 07:35 PM EST / 2022.01.29 0035 UTC
Wind: from the NW (310 degrees) at 3 MPH (3 KT):0
Visibility: 10 mile(s):0
Sky conditions: clear
Temperature: 47.8 F (8.8 C)
Dew Point: 14.5 F (-9.7 C)
Relative Humidity: 25%
Pressure (altimeter): 30.46 in. Hg (1031 hPa)
ob: KMDD 290035Z AUTO 31003KT 10SM CLR 09/M10 A3046 RMK AO2 T00881097
cycle: 0

Station Type Date Time Source
KMDD TAF UTC NOAA

Error!

Example: see airport list